Terminal Aerodrome Forecast
Issued by NWS Pocatello, ID

Home | Current Version | Previous Version | Text Only | Print | Product List | Glossary On
Versions: 1 2 3 4 5 6 7 8 9 10 11 12 13 14 15 16 17 18 19 20 21 22 23 24 25 26 27 28 29 30
130
FTUS45 KPIH 082320
TAFIDA
TAF
KIDA 082320Z 0900/0924 34005KT 6SM BR BKN006 BKN120
     FM090400 VRB03KT 1/2SM FZFG SCT002 OVC003
     FM091900 36005KT 5SM BR BKN003 OVC010
     FM092100 01006KT P6SM BKN012 BKN150
     FM092300 36006KT P6SM SCT015 SCT150=

USA.gov is the U.S. government's official web portal to all federal, state and local government web resources and services.